Auburn, IN

10:24 PM EST on December 10, 2016 (GMT -0500)
Auburn | | Change Station
Active Advisory: Winter Storm Warning

Elev 879 ft 41.31 °N, 85.06 °W | Updated 9 minutes ago

Light Snow
Light Snow
25 °F
Feels Like 25 °F
N
0
Wind Variable Wind from North

Today
High -- | Low -- °F
--% Chance of Precip.
Yesterday
High -- | Low -- °F
Precip. -- in
Pressure 30.37 in
Visibility 1.8 miles
Clouds Overcast 1000 ft
Dew Point 21 °F
Humidity 86%
Rainfall 0.00 in
Snow Depth Not available.
7:55 AM 5:10 PM
Waxing Gibbous, 88% visible
METAR KGWB 110315Z AUTO 00000KT 1 3/4SM -SN OVC010 M04/M06 A3037 RMK AO2
Pressure 30.37 in
Visibility 1.8 miles
Clouds Overcast 1000 ft
Dew Point 21 °F
Humidity 86%
Rainfall 0.00 in
Snow Depth Not available.
7:55 AM 5:10 PM
Waxing Gibbous, 88% visible
METAR KGWB 110315Z AUTO 00000KT 1 3/4SM -SN OVC010 M04/M06 A3037 RMK AO2

10-Day Weather Forecast

Almanac

Astronomy

Dec. 10, 2016 Rise Set
Actual Time
Civil Twilight
Nautical Twilight
Astronomical Twilight
Moon
Length of Visible Light
Length of Day
Tomorrow will be .
, % of the Moon is Illuminated

Today's Extremes

State Highs State Lows

Community

WunderPhotos

Upload Photos

1,956,702 photos uploaded!

WunderBlog® & News

Nearby

Air Quality

  Air Quality AQ Index Pollutant
Not available.

Snow Depth

Station Depth Elevation

Earthquake Activity

City Distance Mag. Time & Date
Minimum magnitude displayed is 2.5.

Coastal Water Temperatures

Place Temperature

Stations

Nearby Weather Stations

Station Location Temp. Windchill Dew Point Humidity Wind Precip. Elev Updated Type
                   

Watches & Warnings

Winter Storm Warning
Issued: 8:54 PM CST Dec. 10, 2016 – National Weather Service

... Winter Storm Warning remains in effect until 4 am EST /3 am
CST/ Monday...

Hazardous weather...

* storm total snowfall accumulations from tonight through
   Sunday night of 6 to 10 inches with locally higher amounts
   possible.

* Light snow will pick up in intensity during the overnight hours
   and continue through Sunday evening. The period of heaviest
   snow is expected from overnight tonight through Sunday
   afternoon.

Impacts...

* roads will become snow covered and hazardous tonight into
   Sunday.

* Some blowing and drifting is possible on Sunday due to south
   winds gusting to around 20 mph.

* Reduced visibilities can be expected during the periods of
   heavier snow... especially late tonight through Sunday
   afternoon.

Precautionary/preparedness actions...

A Winter Storm Warning for heavy snow means severe winter weather
conditions are expected or occurring. Significant amounts of
snow are forecast that will make travel dangerous. Only travel in
an emergency. If you must travel... keep an extra flashlight...
food... and water in your vehicle in case of an emergency.